Share

White City, KS

Marshall Army Air Field (KFRI) Elev 1063 ft | 39.06 °N, 96.76 °W | Change Station

Current weather conditions updated 40 minutes ago

Clear
Clear
72 °F
Feels Like 72 °F
N
20
Wind Variable Wind from SSW
Sunrise 6:43 AM
Sunset 8:08 PM
Moon Waning Gibbous

Today is forecast to be Cooler than yesterday. Showers late tonight.

Pressure 30.02 in
Visibility 10.0 miles
Clouds Clear
Dew Point 52 °F
Humidity 51%
Rainfall 0.00 in
Snow Depth Not available.
UV 4 out of 16
Pollen 10.50 out of 12
Air Quality Not available.
Flu Activity No Activity
METAR KFRI 201458Z AUTO 21017KT 10SM CLR 22/11 A3004 RMK AO2 SLP164 T02210114 50002

More Conditions Fewer Conditions

Pressure 30.02 in
Visibility 10.0 miles
Clouds Clear
Dew Point 52 °F
Humidity 51%
Rainfall 0.00 in
Snow Depth Not available.
UV 4 out of 16
Pollen 10.50 out of 12
Air Quality Not available.
Flu Activity No Activity
METAR KFRI 201458Z AUTO 21017KT 10SM CLR 22/11 A3004 RMK AO2 SLP164 T02210114 50002

More Conditions Fewer Conditions

10-Day Weather Forecast

Almanac

Astronomy

Apr. 20, 2014 Rise Set
Actual Time 6:43 AM CDT 8:08 PM CDT
Civil Twilight 6:15 AM CDT 8:36 PM CDT
Nautical Twilight 5:42 AM CDT 9:10 PM CDT
Astronomical Twilight 5:07 AM CDT 9:45 PM CDT
Moon 12:48 AM CDT 11:06 AM CDT
Length of Visible Light 14h 21m
Length of Day
13h 25m
Tomorrow will be 2m 21s longer.
Waning Gibbous, 69% of the Moon is Illuminated
Today
Waning Gibbous
Apr 22
Last Quarter
Apr 29
New
May 6
First Quarter
May 14
Full

Today's Extremes

State Highs State Lows

Community

  • Easter Sunrise
    Easter Sunrise
  • Easter Eve - The Promise - Lake Palestine, TX
    Easter Eve - The Promise - Lake Palestine, TX
  • Happy Easter
    Happy Easter
  • EARLY FOGGY MORNING
    EARLY FOGGY MORNING
  • Easter Greetings
    Easter Greetings

WunderPhotos

Upload Photos

1,703,258 photos uploaded!

Nearby

Snow Depth

Station Depth Elevation
No new snow has been reported.

Coastal Water Temperatures

Place Temperature
No Stations Reporting

Earthquake Activity

City Distance Mag. Time & Date
No recent earthquake activity has been reported nearby.
Minimum magnitude displayed is 2.5.

Nearby Weather Stations

Station Location Temp. Dew Point Humidity Wind Precip. Elev Updated Type
MesoWest LATIMR , White City, KS 65 °F - - North  at  - 0.00 in / hr 1425 ft 9:25 AM CDT MADIS
MesoWest CHAPMN , Chapman, KS 68 °F - - North  at  - 0.00 in / hr 1086 ft 9:45 AM CDT MADIS
MesoWest HERNTN , Lost Springs, KS 68 °F - - North  at  - 0.00 in / hr 1381 ft 9:35 AM CDT MADIS
MesoWest VOLLND , Alma, KS 65 °F - - North  at  - 0.00 in / hr 1110 ft 8:10 AM CDT MADIS

Show More Stations Show Fewer Stations

What do you think?

We're not finished. Please let us know what you like, what you don't like, and what you are still missing.